sensor_id;sensor_type;location;lat;lon;timestamp;temperature;humidity
37594;DHT22;23441;50.856;6.076;2023-02-28T00:00:21;-0.20;99.90
37594;DHT22;23441;50.856;6.076;2023-02-28T00:02:47;-0.20;99.90
37594;DHT22;23441;50.856;6.076;2023-02-28T00:05:16;-0.20;99.90
37594;DHT22;23441;50.856;6.076;2023-02-28T00:07:42;-0.20;99.90
37594;DHT22;23441;50.856;6.076;2023-02-28T00:10:10;-0.20;99.90
37594;DHT22;23441;50.856;6.076;2023-02-28T00:12:36;-0.20;99.90
37594;DHT22;23441;50.856;6.076;2023-02-28T00:15:09;-0.20;99.90
37594;DHT22;23441;50.856;6.076;2023-02-28T00:17:36;-0.30;99.90
37594;DHT22;23441;50.856;6.076;2023-02-28T00:20:03;-0.30;99.90
37594;DHT22;23441;50.856;6.076;2023-02-28T00:22:30;-0.30;99.90
37594;DHT22;23441;50.856;6.076;2023-02-28T00:24:56;-0.40;99.90
37594;DHT22;23441;50.856;6.076;2023-02-28T00:27:22;-0.40;99.90
37594;DHT22;23441;50.856;6.076;2023-02-28T00:29:48;-0.40;99.90
37594;DHT22;23441;50.856;6.076;2023-02-28T00:32:13;-0.40;99.90
37594;DHT22;23441;50.856;6.076;2023-02-28T00:34:39;-0.40;99.90
37594;DHT22;23441;50.856;6.076;2023-02-28T00:37:06;-0.40;99.90
37594;DHT22;23441;50.856;6.076;2023-02-28T00:39:37;-0.40;99.90
37594;DHT22;23441;50.856;6.076;2023-02-28T00:42:03;-0.40;99.90
37594;DHT22;23441;50.856;6.076;2023-02-28T00:44:30;-0.40;99.90
37594;DHT22;23441;50.856;6.076;2023-02-28T00:46:56;-0.40;99.90
37594;DHT22;23441;50.856;6.076;2023-02-28T00:49:22;-0.50;99.90
37594;DHT22;23441;50.856;6.076;2023-02-28T00:51:48;-0.50;99.90
37594;DHT22;23441;50.856;6.076;2023-02-28T00:54:15;-0.50;99.90
37594;DHT22;23441;50.856;6.076;2023-02-28T00:56:40;-0.50;99.90
37594;DHT22;23441;50.856;6.076;2023-02-28T00:59:06;-0.50;99.90
37594;DHT22;23441;50.856;6.076;2023-02-28T01:01:32;-0.60;99.90
37594;DHT22;23441;50.856;6.076;2023-02-28T01:03:58;-0.60;99.90
37594;DHT22;23441;50.856;6.076;2023-02-28T01:06:23;-0.60;99.90
37594;DHT22;23441;50.856;6.076;2023-02-28T01:08:49;-0.70;99.90
37594;DHT22;23441;50.856;6.076;2023-02-28T01:11:16;-0.80;99.90
37594;DHT22;23441;50.856;6.076;2023-02-28T01:13:43;-0.80;99.90
37594;DHT22;23441;50.856;6.076;2023-02-28T01:16:09;-0.90;99.90
37594;DHT22;23441;50.856;6.076;2023-02-28T01:18:36;-0.90;99.90
37594;DHT22;23441;50.856;6.076;2023-02-28T01:21:07;-0.90;99.90
37594;DHT22;23441;50.856;6.076;2023-02-28T01:23:33;-0.80;99.90
37594;DHT22;23441;50.856;6.076;2023-02-28T01:26:05;-0.80;99.90
37594;DHT22;23441;50.856;6.076;2023-02-28T01:28:31;-0.90;99.90
37594;DHT22;23441;50.856;6.076;2023-02-28T01:30:56;-0.90;99.90
37594;DHT22;23441;50.856;6.076;2023-02-28T01:33:22;-0.90;99.90
37594;DHT22;23441;50.856;6.076;2023-02-28T01:35:48;-0.90;99.90
37594;DHT22;23441;50.856;6.076;2023-02-28T01:38:14;-0.90;99.90
37594;DHT22;23441;50.856;6.076;2023-02-28T01:40:40;-0.90;99.90
37594;DHT22;23441;50.856;6.076;2023-02-28T01:43:22;-0.90;99.90
37594;DHT22;23441;50.856;6.076;2023-02-28T01:45:48;-1.00;99.90
37594;DHT22;23441;50.856;6.076;2023-02-28T01:48:14;-1.10;99.90
37594;DHT22;23441;50.856;6.076;2023-02-28T01:50:41;-1.00;99.90
37594;DHT22;23441;50.856;6.076;2023-02-28T01:53:13;-1.00;99.90
37594;DHT22;23441;50.856;6.076;2023-02-28T01:55:41;-1.10;99.90
37594;DHT22;23441;50.856;6.076;2023-02-28T01:58:08;-1.10;99.90
37594;DHT22;23441;50.856;6.076;2023-02-28T02:00:34;-1.00;99.90
37594;DHT22;23441;50.856;6.076;2023-02-28T02:03:08;-1.10;99.90
37594;DHT22;23441;50.856;6.076;2023-02-28T02:05:38;-1.10;99.90
37594;DHT22;23441;50.856;6.076;2023-02-28T02:08:11;-1.20;99.90
37594;DHT22;23441;50.856;6.076;2023-02-28T02:10:54;-1.20;99.90
37594;DHT22;23441;50.856;6.076;2023-02-28T02:18:53;-1.10;99.90
37594;DHT22;23441;50.856;6.076;2023-02-28T02:26:51;-1.20;99.90
37594;DHT22;23441;50.856;6.076;2023-02-28T02:37:51;-1.20;99.90
37594;DHT22;23441;50.856;6.076;2023-02-28T02:42:53;-1.00;99.90
37594;DHT22;23441;50.856;6.076;2023-02-28T02:45:56;-1.10;99.90
37594;DHT22;23441;50.856;6.076;2023-02-28T02:48:23;-1.10;99.90
37594;DHT22;23441;50.856;6.076;2023-02-28T02:50:56;-1.10;99.90
37594;DHT22;23441;50.856;6.076;2023-02-28T02:53:29;-1.10;99.90
37594;DHT22;23441;50.856;6.076;2023-02-28T02:55:58;-1.10;99.90
37594;DHT22;23441;50.856;6.076;2023-02-28T02:58:29;-1.20;99.90
37594;DHT22;23441;50.856;6.076;2023-02-28T03:00:59;-1.20;99.90
37594;DHT22;23441;50.856;6.076;2023-02-28T03:03:27;-1.30;99.90
37594;DHT22;23441;50.856;6.076;2023-02-28T03:05:58;-1.40;99.90
37594;DHT22;23441;50.856;6.076;2023-02-28T03:08:25;-1.40;99.90
37594;DHT22;23441;50.856;6.076;2023-02-28T03:11:00;-1.50;99.90
37594;DHT22;23441;50.856;6.076;2023-02-28T03:13:48;-1.50;99.90
37594;DHT22;23441;50.856;6.076;2023-02-28T03:21:34;-1.70;99.90
37594;DHT22;23441;50.856;6.076;2023-02-28T03:24:10;-1.70;99.90
37594;DHT22;23441;50.856;6.076;2023-02-28T03:26:43;-1.70;99.90
37594;DHT22;23441;50.856;6.076;2023-02-28T03:29:28;-1.70;99.90
37594;DHT22;23441;50.856;6.076;2023-02-28T03:32:08;-1.70;99.90
37594;DHT22;23441;50.856;6.076;2023-02-28T03:34:46;-1.60;99.90
37594;DHT22;23441;50.856;6.076;2023-02-28T03:37:18;-1.60;99.90
37594;DHT22;23441;50.856;6.076;2023-02-28T03:39:49;-1.60;99.90
37594;DHT22;23441;50.856;6.076;2023-02-28T03:42:26;-1.50;99.90
37594;DHT22;23441;50.856;6.076;2023-02-28T03:44:59;-1.40;99.90
37594;DHT22;23441;50.856;6.076;2023-02-28T03:47:54;-1.30;99.90
37594;DHT22;23441;50.856;6.076;2023-02-28T03:50:34;-1.30;99.90
37594;DHT22;23441;50.856;6.076;2023-02-28T03:53:21;-1.20;99.90
37594;DHT22;23441;50.856;6.076;2023-02-28T03:56:01;-1.10;99.90
37594;DHT22;23441;50.856;6.076;2023-02-28T03:58:39;-1.10;99.90
37594;DHT22;23441;50.856;6.076;2023-02-28T04:01:26;-1.10;99.90
37594;DHT22;23441;50.856;6.076;2023-02-28T04:03:52;-1.10;99.90
37594;DHT22;23441;50.856;6.076;2023-02-28T04:06:21;-1.10;99.90
37594;DHT22;23441;50.856;6.076;2023-02-28T04:08:47;-1.10;99.90
37594;DHT22;23441;50.856;6.076;2023-02-28T04:12:08;-1.20;99.90
37594;DHT22;23441;50.856;6.076;2023-02-28T04:14:09;-1.20;99.90
37594;DHT22;23441;50.856;6.076;2023-02-28T04:16:37;-1.30;99.90
37594;DHT22;23441;50.856;6.076;2023-02-28T04:19:04;-1.30;99.90
37594;DHT22;23441;50.856;6.076;2023-02-28T04:21:42;-1.40;99.90
37594;DHT22;23441;50.856;6.076;2023-02-28T04:24:14;-1.40;99.90
37594;DHT22;23441;50.856;6.076;2023-02-28T04:26:45;-1.50;99.90
37594;DHT22;23441;50.856;6.076;2023-02-28T04:29:13;-1.50;99.90
37594;DHT22;23441;50.856;6.076;2023-02-28T04:31:39;-1.60;99.90
37594;DHT22;23441;50.856;6.076;2023-02-28T04:34:05;-1.60;99.90
37594;DHT22;23441;50.856;6.076;2023-02-28T04:36:32;-1.70;99.90
37594;DHT22;23441;50.856;6.076;2023-02-28T04:38:57;-1.70;99.90
37594;DHT22;23441;50.856;6.076;2023-02-28T04:41:23;-1.70;99.90
37594;DHT22;23441;50.856;6.076;2023-02-28T04:43:50;-1.70;99.90
37594;DHT22;23441;50.856;6.076;2023-02-28T04:46:16;-1.70;99.90
37594;DHT22;23441;50.856;6.076;2023-02-28T04:48:44;-1.60;99.90
37594;DHT22;23441;50.856;6.076;2023-02-28T04:51:12;-1.60;99.90
37594;DHT22;23441;50.856;6.076;2023-02-28T04:53:40;-1.50;99.90
37594;DHT22;23441;50.856;6.076;2023-02-28T04:56:07;-1.40;99.90
37594;DHT22;23441;50.856;6.076;2023-02-28T04:58:34;-1.40;99.90
37594;DHT22;23441;50.856;6.076;2023-02-28T05:01:17;-1.40;99.90
37594;DHT22;23441;50.856;6.076;2023-02-28T05:03:43;-1.50;99.90
37594;DHT22;23441;50.856;6.076;2023-02-28T05:06:10;-1.50;99.90
37594;DHT22;23441;50.856;6.076;2023-02-28T05:08:36;-1.50;99.90
37594;DHT22;23441;50.856;6.076;2023-02-28T05:11:01;-1.60;99.90
37594;DHT22;23441;50.856;6.076;2023-02-28T05:13:28;-1.60;99.90
37594;DHT22;23441;50.856;6.076;2023-02-28T05:15:54;-1.70;99.90
37594;DHT22;23441;50.856;6.076;2023-02-28T05:18:19;-1.70;99.90
37594;DHT22;23441;50.856;6.076;2023-02-28T05:20:45;-1.70;99.90
37594;DHT22;23441;50.856;6.076;2023-02-28T05:23:15;-1.70;99.90
37594;DHT22;23441;50.856;6.076;2023-02-28T05:25:41;-1.80;99.90
37594;DHT22;23441;50.856;6.076;2023-02-28T05:28:07;-1.80;99.90
37594;DHT22;23441;50.856;6.076;2023-02-28T05:30:33;-1.90;99.90
37594;DHT22;23441;50.856;6.076;2023-02-28T05:32:59;-1.90;99.90
37594;DHT22;23441;50.856;6.076;2023-02-28T05:35:25;-1.90;99.90
37594;DHT22;23441;50.856;6.076;2023-02-28T05:37:51;-2.00;99.90
37594;DHT22;23441;50.856;6.076;2023-02-28T05:40:17;-2.00;99.90
37594;DHT22;23441;50.856;6.076;2023-02-28T05:42:44;-2.00;99.90
37594;DHT22;23441;50.856;6.076;2023-02-28T05:45:11;-2.10;99.90
37594;DHT22;23441;50.856;6.076;2023-02-28T05:47:36;-2.10;99.90
37594;DHT22;23441;50.856;6.076;2023-02-28T05:50:03;-2.10;99.90
37594;DHT22;23441;50.856;6.076;2023-02-28T05:52:28;-2.10;99.90
37594;DHT22;23441;50.856;6.076;2023-02-28T05:54:55;-2.10;99.90
37594;DHT22;23441;50.856;6.076;2023-02-28T05:57:22;-2.20;99.90
37594;DHT22;23441;50.856;6.076;2023-02-28T05:59:47;-2.20;99.90
37594;DHT22;23441;50.856;6.076;2023-02-28T06:02:15;-2.20;99.90
37594;DHT22;23441;50.856;6.076;2023-02-28T06:04:42;-2.20;99.90
37594;DHT22;23441;50.856;6.076;2023-02-28T06:07:09;-2.10;99.90
37594;DHT22;23441;50.856;6.076;2023-02-28T06:09:35;-2.10;99.90
37594;DHT22;23441;50.856;6.076;2023-02-28T06:12:02;-2.20;99.90
37594;DHT22;23441;50.856;6.076;2023-02-28T06:14:33;-2.20;99.90
37594;DHT22;23441;50.856;6.076;2023-02-28T06:16:59;-2.20;99.90
37594;DHT22;23441;50.856;6.076;2023-02-28T06:19:25;-2.20;99.90
37594;DHT22;23441;50.856;6.076;2023-02-28T06:21:52;-2.20;99.90
37594;DHT22;23441;50.856;6.076;2023-02-28T06:24:20;-2.20;99.90
37594;DHT22;23441;50.856;6.076;2023-02-28T06:26:46;-2.20;99.90
37594;DHT22;23441;50.856;6.076;2023-02-28T06:29:11;-2.20;99.90
37594;DHT22;23441;50.856;6.076;2023-02-28T06:31:37;-2.20;99.90
37594;DHT22;23441;50.856;6.076;2023-02-28T06:34:04;-2.20;99.90
37594;DHT22;23441;50.856;6.076;2023-02-28T06:36:30;-2.10;99.90
37594;DHT22;23441;50.856;6.076;2023-02-28T06:38:56;-2.10;99.90
37594;DHT22;23441;50.856;6.076;2023-02-28T06:41:24;-2.10;99.90
37594;DHT22;23441;50.856;6.076;2023-02-28T06:43:50;-2.10;99.90
37594;DHT22;23441;50.856;6.076;2023-02-28T06:46:15;-2.10;99.90
37594;DHT22;23441;50.856;6.076;2023-02-28T06:48:43;-2.10;99.90
37594;DHT22;23441;50.856;6.076;2023-02-28T06:51:15;-2.10;99.90
37594;DHT22;23441;50.856;6.076;2023-02-28T06:53:41;-2.10;99.90
37594;DHT22;23441;50.856;6.076;2023-02-28T06:56:09;-2.10;99.90
37594;DHT22;23441;50.856;6.076;2023-02-28T06:58:36;-2.10;99.90
37594;DHT22;23441;50.856;6.076;2023-02-28T07:01:03;-1.90;99.90
37594;DHT22;23441;50.856;6.076;2023-02-28T07:03:29;-1.40;99.90
37594;DHT22;23441;50.856;6.076;2023-02-28T07:05:54;-1.00;99.90
37594;DHT22;23441;50.856;6.076;2023-02-28T07:08:22;-0.70;99.90
37594;DHT22;23441;50.856;6.076;2023-02-28T07:10:54;-0.70;99.90
37594;DHT22;23441;50.856;6.076;2023-02-28T07:13:21;-0.70;99.90
37594;DHT22;23441;50.856;6.076;2023-02-28T07:16:02;-0.70;99.90
37594;DHT22;23441;50.856;6.076;2023-02-28T07:18:28;-0.80;99.90
37594;DHT22;23441;50.856;6.076;2023-02-28T07:20:54;-0.70;99.90
37594;DHT22;23441;50.856;6.076;2023-02-28T07:23:20;-0.80;99.90
37594;DHT22;23441;50.856;6.076;2023-02-28T07:25:47;-0.90;99.90
37594;DHT22;23441;50.856;6.076;2023-02-28T07:28:13;-1.10;99.90
37594;DHT22;23441;50.856;6.076;2023-02-28T07:30:40;-1.20;99.90
37594;DHT22;23441;50.856;6.076;2023-02-28T07:33:06;-1.20;99.90
37594;DHT22;23441;50.856;6.076;2023-02-28T07:35:32;-1.30;99.90
37594;DHT22;23441;50.856;6.076;2023-02-28T07:37:58;-1.30;99.90
37594;DHT22;23441;50.856;6.076;2023-02-28T07:40:24;-1.30;99.90
37594;DHT22;23441;50.856;6.076;2023-02-28T07:42:50;-1.20;99.90
37594;DHT22;23441;50.856;6.076;2023-02-28T07:45:16;-1.20;99.90
37594;DHT22;23441;50.856;6.076;2023-02-28T07:47:42;-1.10;99.90
37594;DHT22;23441;50.856;6.076;2023-02-28T07:50:11;-1.00;99.90
37594;DHT22;23441;50.856;6.076;2023-02-28T07:52:38;-0.60;99.90
37594;DHT22;23441;50.856;6.076;2023-02-28T07:55:05;0.20;99.90
37594;DHT22;23441;50.856;6.076;2023-02-28T07:57:31;1.10;99.90
37594;DHT22;23441;50.856;6.076;2023-02-28T07:59:57;1.70;99.90
37594;DHT22;23441;50.856;6.076;2023-02-28T08:02:23;2.30;99.90
37594;DHT22;23441;50.856;6.076;2023-02-28T08:04:48;2.30;99.90
37594;DHT22;23441;50.856;6.076;2023-02-28T08:07:15;1.70;99.90
37594;DHT22;23441;50.856;6.076;2023-02-28T08:09:42;1.10;99.90
37594;DHT22;23441;50.856;6.076;2023-02-28T08:12:09;0.80;99.90
37594;DHT22;23441;50.856;6.076;2023-02-28T08:14:35;0.60;99.90
37594;DHT22;23441;50.856;6.076;2023-02-28T08:17:01;0.50;99.90
37594;DHT22;23441;50.856;6.076;2023-02-28T08:19:27;0.40;99.90
37594;DHT22;23441;50.856;6.076;2023-02-28T08:21:52;0.40;99.90
37594;DHT22;23441;50.856;6.076;2023-02-28T08:24:18;0.30;99.90
37594;DHT22;23441;50.856;6.076;2023-02-28T08:26:44;0.30;99.90
37594;DHT22;23441;50.856;6.076;2023-02-28T08:29:10;0.40;99.90
37594;DHT22;23441;50.856;6.076;2023-02-28T08:31:35;0.50;99.90
37594;DHT22;23441;50.856;6.076;2023-02-28T08:34:12;0.50;99.90
37594;DHT22;23441;50.856;6.076;2023-02-28T08:36:40;0.50;99.90
37594;DHT22;23441;50.856;6.076;2023-02-28T08:39:06;0.50;99.90
37594;DHT22;23441;50.856;6.076;2023-02-28T08:41:33;0.50;99.90
37594;DHT22;23441;50.856;6.076;2023-02-28T08:43:59;0.40;99.90
37594;DHT22;23441;50.856;6.076;2023-02-28T08:46:25;0.40;99.90
37594;DHT22;23441;50.856;6.076;2023-02-28T08:48:52;0.50;99.90
37594;DHT22;23441;50.856;6.076;2023-02-28T08:51:19;0.60;99.90
37594;DHT22;23441;50.856;6.076;2023-02-28T08:53:52;0.60;99.90
37594;DHT22;23441;50.856;6.076;2023-02-28T08:56:18;0.70;99.90
37594;DHT22;23441;50.856;6.076;2023-02-28T08:58:45;0.70;99.90
37594;DHT22;23441;50.856;6.076;2023-02-28T09:01:19;0.70;99.90
37594;DHT22;23441;50.856;6.076;2023-02-28T09:03:46;0.70;99.90
37594;DHT22;23441;50.856;6.076;2023-02-28T09:06:12;0.80;99.90
37594;DHT22;23441;50.856;6.076;2023-02-28T09:08:40;0.80;99.90
37594;DHT22;23441;50.856;6.076;2023-02-28T09:11:06;0.90;99.90
37594;DHT22;23441;50.856;6.076;2023-02-28T09:13:32;1.00;99.90
37594;DHT22;23441;50.856;6.076;2023-02-28T09:16:00;1.10;99.90
37594;DHT22;23441;50.856;6.076;2023-02-28T09:18:26;1.10;99.90
37594;DHT22;23441;50.856;6.076;2023-02-28T09:20:52;1.20;99.90
37594;DHT22;23441;50.856;6.076;2023-02-28T09:23:18;1.30;99.90
37594;DHT22;23441;50.856;6.076;2023-02-28T09:25:52;1.30;99.90
37594;DHT22;23441;50.856;6.076;2023-02-28T09:28:20;1.40;99.90
37594;DHT22;23441;50.856;6.076;2023-02-28T09:30:48;1.40;99.90
37594;DHT22;23441;50.856;6.076;2023-02-28T09:33:14;1.50;99.90
37594;DHT22;23441;50.856;6.076;2023-02-28T09:35:40;1.60;99.90
37594;DHT22;23441;50.856;6.076;2023-02-28T09:38:06;1.60;99.90
37594;DHT22;23441;50.856;6.076;2023-02-28T09:40:38;1.70;99.90
37594;DHT22;23441;50.856;6.076;2023-02-28T09:43:05;1.80;99.90
37594;DHT22;23441;50.856;6.076;2023-02-28T09:45:40;1.80;99.20
37594;DHT22;23441;50.856;6.076;2023-02-28T09:48:19;1.90;98.90
37594;DHT22;23441;50.856;6.076;2023-02-28T09:51:20;2.00;97.50
37594;DHT22;23441;50.856;6.076;2023-02-28T09:53:48;2.00;98.10
37594;DHT22;23441;50.856;6.076;2023-02-28T09:56:20;2.10;97.80
37594;DHT22;23441;50.856;6.076;2023-02-28T09:59:01;2.10;96.80
37594;DHT22;23441;50.856;6.076;2023-02-28T10:04:51;2.20;96.50
37594;DHT22;23441;50.856;6.076;2023-02-28T10:10:04;2.20;97.60
37594;DHT22;23441;50.856;6.076;2023-02-28T10:12:33;2.30;96.50
37594;DHT22;23441;50.856;6.076;2023-02-28T10:14:59;2.30;97.40
37594;DHT22;23441;50.856;6.076;2023-02-28T10:17:36;2.40;95.50
37594;DHT22;23441;50.856;6.076;2023-02-28T10:20:22;2.40;95.80
37594;DHT22;23441;50.856;6.076;2023-02-28T10:26:17;2.50;95.30
37594;DHT22;23441;50.856;6.076;2023-02-28T10:28:43;2.60;96.10
37594;DHT22;23441;50.856;6.076;2023-02-28T10:31:19;2.60;95.70
37594;DHT22;23441;50.856;6.076;2023-02-28T10:33:45;2.60;95.60
37594;DHT22;23441;50.856;6.076;2023-02-28T10:36:18;2.50;95.00
37594;DHT22;23441;50.856;6.076;2023-02-28T10:38:46;2.40;93.90
37594;DHT22;23441;50.856;6.076;2023-02-28T10:41:26;2.30;93.50
37594;DHT22;23441;50.856;6.076;2023-02-28T10:43:53;2.20;93.00
37594;DHT22;23441;50.856;6.076;2023-02-28T10:46:39;2.20;94.90
37594;DHT22;23441;50.856;6.076;2023-02-28T10:49:20;2.20;93.30
37594;DHT22;23441;50.856;6.076;2023-02-28T10:51:47;2.30;94.90
37594;DHT22;23441;50.856;6.076;2023-02-28T10:54:31;2.40;94.50
37594;DHT22;23441;50.856;6.076;2023-02-28T10:57:30;2.60;94.40
37594;DHT22;23441;50.856;6.076;2023-02-28T11:00:16;2.60;93.60
37594;DHT22;23441;50.856;6.076;2023-02-28T11:02:41;2.50;94.00
37594;DHT22;23441;50.856;6.076;2023-02-28T11:07:54;2.80;92.80
37594;DHT22;23441;50.856;6.076;2023-02-28T11:10:23;2.80;92.50
37594;DHT22;23441;50.856;6.076;2023-02-28T11:12:49;2.80;92.90
37594;DHT22;23441;50.856;6.076;2023-02-28T11:20:25;2.90;93.70
37594;DHT22;23441;50.856;6.076;2023-02-28T11:22:52;3.00;93.30
37594;DHT22;23441;50.856;6.076;2023-02-28T11:25:26;2.90;92.30
37594;DHT22;23441;50.856;6.076;2023-02-28T11:28:01;2.90;92.00
37594;DHT22;23441;50.856;6.076;2023-02-28T11:30:31;3.00;93.10
37594;DHT22;23441;50.856;6.076;2023-02-28T11:32:57;3.10;93.60
37594;DHT22;23441;50.856;6.076;2023-02-28T11:35:24;3.10;92.90
37594;DHT22;23441;50.856;6.076;2023-02-28T11:37:51;3.20;92.40
37594;DHT22;23441;50.856;6.076;2023-02-28T11:40:22;3.20;93.00
37594;DHT22;23441;50.856;6.076;2023-02-28T11:48:22;3.50;91.20
37594;DHT22;23441;50.856;6.076;2023-02-28T11:51:10;3.60;92.10
37594;DHT22;23441;50.856;6.076;2023-02-28T11:56:24;3.70;91.80
37594;DHT22;23441;50.856;6.076;2023-02-28T11:58:58;3.80;91.30
37594;DHT22;23441;50.856;6.076;2023-02-28T12:04:13;3.70;90.90
37594;DHT22;23441;50.856;6.076;2023-02-28T12:10:15;3.30;91.10
37594;DHT22;23441;50.856;6.076;2023-02-28T12:12:48;3.20;91.60
37594;DHT22;23441;50.856;6.076;2023-02-28T12:28:18;4.00;93.30
37594;DHT22;23441;50.856;6.076;2023-02-28T12:31:09;4.10;91.30
37594;DHT22;23441;50.856;6.076;2023-02-28T12:33:40;4.20;91.70
37594;DHT22;23441;50.856;6.076;2023-02-28T12:36:14;4.30;91.10
37594;DHT22;23441;50.856;6.076;2023-02-28T12:41:22;4.30;91.90
37594;DHT22;23441;50.856;6.076;2023-02-28T12:44:00;4.40;90.10
37594;DHT22;23441;50.856;6.076;2023-02-28T12:46:34;4.50;92.00
37594;DHT22;23441;50.856;6.076;2023-02-28T12:49:34;4.60;90.90
37594;DHT22;23441;50.856;6.076;2023-02-28T12:52:03;4.80;92.20
37594;DHT22;23441;50.856;6.076;2023-02-28T12:55:14;4.70;90.30
37594;DHT22;23441;50.856;6.076;2023-02-28T12:58:01;4.80;91.60
37594;DHT22;23441;50.856;6.076;2023-02-28T13:00:42;4.70;91.20
37594;DHT22;23441;50.856;6.076;2023-02-28T13:11:45;5.40;92.10
37594;DHT22;23441;50.856;6.076;2023-02-28T13:19:34;4.80;92.20
37594;DHT22;23441;50.856;6.076;2023-02-28T13:22:00;4.80;92.10
37594;DHT22;23441;50.856;6.076;2023-02-28T13:29:31;4.40;94.10
37594;DHT22;23441;50.856;6.076;2023-02-28T13:34:40;4.50;92.40
37594;DHT22;23441;50.856;6.076;2023-02-28T13:39:52;4.50;92.20
37594;DHT22;23441;50.856;6.076;2023-02-28T13:50:31;4.60;93.40
37594;DHT22;23441;50.856;6.076;2023-02-28T14:01:28;4.90;93.40
37594;DHT22;23441;50.856;6.076;2023-02-28T14:06:37;4.90;91.80
37594;DHT22;23441;50.856;6.076;2023-02-28T14:11:45;4.90;91.80
37594;DHT22;23441;50.856;6.076;2023-02-28T14:17:05;4.90;93.10
37594;DHT22;23441;50.856;6.076;2023-02-28T14:19:34;4.80;93.20
37594;DHT22;23441;50.856;6.076;2023-02-28T14:25:24;4.90;91.50
37594;DHT22;23441;50.856;6.076;2023-02-28T14:31:07;4.70;91.10
37594;DHT22;23441;50.856;6.076;2023-02-28T14:33:39;4.80;91.70
37594;DHT22;23441;50.856;6.076;2023-02-28T14:36:22;4.80;91.90
37594;DHT22;23441;50.856;6.076;2023-02-28T14:38:52;4.80;92.20
37594;DHT22;23441;50.856;6.076;2023-02-28T14:41:35;4.70;92.10
37594;DHT22;23441;50.856;6.076;2023-02-28T14:44:20;4.70;92.30
37594;DHT22;23441;50.856;6.076;2023-02-28T14:46:56;4.70;92.00
37594;DHT22;23441;50.856;6.076;2023-02-28T14:49:31;4.70;92.40
37594;DHT22;23441;50.856;6.076;2023-02-28T14:52:07;4.60;92.50
37594;DHT22;23441;50.856;6.076;2023-02-28T14:54:39;4.60;92.60
37594;DHT22;23441;50.856;6.076;2023-02-28T14:57:05;4.50;92.30
37594;DHT22;23441;50.856;6.076;2023-02-28T14:59:34;4.40;92.70
37594;DHT22;23441;50.856;6.076;2023-02-28T15:02:24;4.50;93.10
37594;DHT22;23441;50.856;6.076;2023-02-28T15:07:46;4.50;92.60
37594;DHT22;23441;50.856;6.076;2023-02-28T15:10:26;4.40;92.50
37594;DHT22;23441;50.856;6.076;2023-02-28T15:20:51;4.30;92.90
37594;DHT22;23441;50.856;6.076;2023-02-28T15:23:18;4.30;92.80
37594;DHT22;23441;50.856;6.076;2023-02-28T15:25:45;4.30;92.90
37594;DHT22;23441;50.856;6.076;2023-02-28T15:28:16;4.20;92.40
37594;DHT22;23441;50.856;6.076;2023-02-28T15:30:52;4.20;92.40
37594;DHT22;23441;50.856;6.076;2023-02-28T15:33:22;4.30;92.60
37594;DHT22;23441;50.856;6.076;2023-02-28T15:35:48;4.30;92.90
37594;DHT22;23441;50.856;6.076;2023-02-28T15:43:35;4.40;93.40
37594;DHT22;23441;50.856;6.076;2023-02-28T15:48:45;4.30;92.10
37594;DHT22;23441;50.856;6.076;2023-02-28T15:54:05;4.30;91.90
37594;DHT22;23441;50.856;6.076;2023-02-28T15:56:33;4.30;91.70
37594;DHT22;23441;50.856;6.076;2023-02-28T15:59:02;4.30;92.90
37594;DHT22;23441;50.856;6.076;2023-02-28T16:01:30;4.20;92.20
37594;DHT22;23441;50.856;6.076;2023-02-28T16:04:00;4.20;92.20
37594;DHT22;23441;50.856;6.076;2023-02-28T16:06:35;4.20;92.80
37594;DHT22;23441;50.856;6.076;2023-02-28T16:09:03;4.20;91.80
37594;DHT22;23441;50.856;6.076;2023-02-28T16:11:28;4.20;92.60
37594;DHT22;23441;50.856;6.076;2023-02-28T16:13:56;4.20;93.00
37594;DHT22;23441;50.856;6.076;2023-02-28T16:16:24;4.20;93.00
37594;DHT22;23441;50.856;6.076;2023-02-28T16:18:51;4.10;92.70
37594;DHT22;23441;50.856;6.076;2023-02-28T16:21:17;4.10;92.70
37594;DHT22;23441;50.856;6.076;2023-02-28T16:23:43;4.00;92.80
37594;DHT22;23441;50.856;6.076;2023-02-28T16:26:19;4.00;93.00
37594;DHT22;23441;50.856;6.076;2023-02-28T16:28:45;4.00;93.60
37594;DHT22;23441;50.856;6.076;2023-02-28T16:31:11;3.90;93.30
37594;DHT22;23441;50.856;6.076;2023-02-28T16:33:42;3.90;93.00
37594;DHT22;23441;50.856;6.076;2023-02-28T16:36:15;3.80;93.30
37594;DHT22;23441;50.856;6.076;2023-02-28T16:38:41;3.80;93.20
37594;DHT22;23441;50.856;6.076;2023-02-28T16:41:07;3.80;93.70
37594;DHT22;23441;50.856;6.076;2023-02-28T16:43:35;3.80;93.80
37594;DHT22;23441;50.856;6.076;2023-02-28T16:46:01;3.80;93.70
37594;DHT22;23441;50.856;6.076;2023-02-28T16:48:28;3.70;94.00
37594;DHT22;23441;50.856;6.076;2023-02-28T16:50:56;3.70;93.80
37594;DHT22;23441;50.856;6.076;2023-02-28T16:53:21;3.60;94.00
37594;DHT22;23441;50.856;6.076;2023-02-28T16:55:47;3.60;94.10
37594;DHT22;23441;50.856;6.076;2023-02-28T16:58:16;3.50;94.60
37594;DHT22;23441;50.856;6.076;2023-02-28T17:00:42;3.40;94.60
37594;DHT22;23441;50.856;6.076;2023-02-28T17:03:35;3.40;94.70
37594;DHT22;23441;50.856;6.076;2023-02-28T17:06:02;3.40;94.90
37594;DHT22;23441;50.856;6.076;2023-02-28T17:08:28;3.30;95.30
37594;DHT22;23441;50.856;6.076;2023-02-28T17:10:55;3.30;95.30
37594;DHT22;23441;50.856;6.076;2023-02-28T17:13:21;3.20;95.70
37594;DHT22;23441;50.856;6.076;2023-02-28T17:15:46;3.20;96.10
37594;DHT22;23441;50.856;6.076;2023-02-28T17:18:17;3.20;96.50
37594;DHT22;23441;50.856;6.076;2023-02-28T17:20:47;3.10;96.30
37594;DHT22;23441;50.856;6.076;2023-02-28T17:23:13;3.00;96.60
37594;DHT22;23441;50.856;6.076;2023-02-28T17:25:38;3.00;96.80
37594;DHT22;23441;50.856;6.076;2023-02-28T17:28:04;2.90;97.40
37594;DHT22;23441;50.856;6.076;2023-02-28T17:30:33;2.80;97.30
37594;DHT22;23441;50.856;6.076;2023-02-28T17:32:59;2.80;97.60
37594;DHT22;23441;50.856;6.076;2023-02-28T17:35:24;2.80;97.50
37594;DHT22;23441;50.856;6.076;2023-02-28T17:37:52;2.70;97.80
37594;DHT22;23441;50.856;6.076;2023-02-28T17:40:23;2.70;97.90
37594;DHT22;23441;50.856;6.076;2023-02-28T17:42:49;2.60;97.80
37594;DHT22;23441;50.856;6.076;2023-02-28T17:45:17;2.60;98.00
37594;DHT22;23441;50.856;6.076;2023-02-28T17:47:46;2.60;98.30
37594;DHT22;23441;50.856;6.076;2023-02-28T17:50:16;2.60;98.30
37594;DHT22;23441;50.856;6.076;2023-02-28T17:52:42;2.50;98.30
37594;DHT22;23441;50.856;6.076;2023-02-28T17:55:08;2.50;98.30
37594;DHT22;23441;50.856;6.076;2023-02-28T17:57:34;2.40;98.60
37594;DHT22;23441;50.856;6.076;2023-02-28T18:00:00;2.40;98.70
37594;DHT22;23441;50.856;6.076;2023-02-28T18:02:29;2.40;98.80
37594;DHT22;23441;50.856;6.076;2023-02-28T18:04:55;2.30;99.00
37594;DHT22;23441;50.856;6.076;2023-02-28T18:07:23;2.30;99.10
37594;DHT22;23441;50.856;6.076;2023-02-28T18:09:49;2.20;99.20
37594;DHT22;23441;50.856;6.076;2023-02-28T18:12:15;2.20;99.50
37594;DHT22;23441;50.856;6.076;2023-02-28T18:14:40;2.10;99.50
37594;DHT22;23441;50.856;6.076;2023-02-28T18:17:06;2.20;99.80
37594;DHT22;23441;50.856;6.076;2023-02-28T18:19:31;2.20;99.70
37594;DHT22;23441;50.856;6.076;2023-02-28T18:21:57;2.10;99.80
37594;DHT22;23441;50.856;6.076;2023-02-28T18:24:23;2.10;99.90
37594;DHT22;23441;50.856;6.076;2023-02-28T18:26:49;2.10;99.90